KGMU/GMU METAR and TAF weather

Enter ICAO airport designator
Station Type Date Time Source
KGMU METAR 2022/08/16 18:53 UTC NOAA

KGMU 161853Z 06009KT 10SM BKN020 OVC100 25/18 A2998 RMK AO2 SLP141 T02500183


Station Type Date Time Source
KGMU Decoded METAR 2022/08/16 18:53 UTC NOAA

GREENVILLE DOWNTOWN AIRPORT , SC, United States (KGMU) 34-51N 82-21W 315M
Aug 16, 2022 - 02:53 PM EDT / 2022.08.16 1853 UTC
Wind: from the ENE (060 degrees) at 10 MPH (9 KT):0
Visibility: 10 mile(s):0
Sky conditions: overcast
Temperature: 77.0 F (25.0 C)
Dew Point: 64.9 F (18.3 C)
Relative Humidity: 66%
Pressure (altimeter): 29.98 in. Hg (1015 hPa)
ob: KGMU 161853Z 06009KT 10SM BKN020 OVC100 25/18 A2998 RMK AO2 SLP141 T02500183
cycle: 19

Station Type Date Time Source
KGMU TAF 2022/08/16 18:42 UTC NOAA

TAF KGMU 161740Z 1618/1718 06009KT P6SM BKN015 OVC024
FM162000 06007KT P6SM VCSH BKN035
FM170300 04005KT P6SM OVC080
FM170700 04005KT P6SM FEW007 SCT015 BKN030
FM171600 06006KT P6SM BKN025

Example: see airport list